Time;durP1;ratioP1;P1;durP2;ratioP2;P2;SDS_P1;SDS_P2;PMS_P1;PMS_P2;Temp;Humidity;BMP_temperature;BMP_pressure;BME280_temperature;BME280_humidity;BME280_pressure;Samples;Min_cycle;Max_cycle;Signal;HPM_P1;HPM_P2
2023/08/14 00:00:31;;;;;;;10.00;9.33;;;;;;;19.54;59.11;93263.59;5091575;28;20210;-75
2023/08/14 00:02:57;;;;;;;10.43;9.83;;;;;;;19.57;58.23;93262.16;5101914;28;20251;-75
2023/08/14 00:05:22;;;;;;;9.13;8.53;;;;;;;19.60;57.18;93257.00;5084467;28;20213;-75
2023/08/14 00:07:48;;;;;;;9.32;8.55;;;;;;;19.55;57.27;93259.06;5078897;28;20255;-75
2023/08/14 00:10:13;;;;;;;9.55;8.60;;;;;;;19.57;57.54;93239.09;5071461;28;20299;-75
2023/08/14 00:12:39;;;;;;;9.60;9.00;;;;;;;19.59;57.24;93249.38;5069412;28;20284;-75
2023/08/14 00:15:05;;;;;;;9.53;8.80;;;;;;;19.55;56.73;93265.13;5070942;28;20247;-75
2023/08/14 00:17:30;;;;;;;9.90;9.30;;;;;;;19.57;56.17;93251.56;5071236;28;20224;-75
2023/08/14 00:19:55;;;;;;;10.23;9.50;;;;;;;19.58;55.98;93256.53;5067834;28;20214;-75
2023/08/14 00:22:21;;;;;;;9.40;8.70;;;;;;;19.61;56.34;93258.56;5070491;28;20240;-75
2023/08/14 00:24:46;;;;;;;9.23;8.63;;;;;;;19.61;56.38;93263.09;5071348;28;20188;-74
2023/08/14 00:27:12;;;;;;;9.47;8.97;;;;;;;19.55;56.58;93259.81;5077516;28;20268;-75
2023/08/14 00:29:37;;;;;;;10.05;9.15;;;;;;;19.54;55.79;93268.88;5083622;28;20259;-75
2023/08/14 00:32:03;;;;;;;9.60;8.73;;;;;;;19.59;55.89;93270.56;5088971;28;20239;-75
2023/08/14 00:34:28;;;;;;;9.30;8.80;;;;;;;19.52;55.89;93259.72;5085001;28;20178;-75
2023/08/14 00:36:53;;;;;;;9.68;9.07;;;;;;;19.56;56.33;93274.66;5090328;28;20265;-75
2023/08/14 00:39:19;;;;;;;8.90;8.40;;;;;;;19.53;55.58;93264.69;5090821;28;20172;-74
2023/08/14 00:41:44;;;;;;;9.47;8.83;;;;;;;19.46;54.90;93251.13;5090166;28;20226;-75
2023/08/14 00:44:09;;;;;;;9.63;9.03;;;;;;;19.49;55.29;93261.09;5090480;28;20188;-75
2023/08/14 00:46:35;;;;;;;8.87;8.27;;;;;;;19.37;55.07;93257.56;5090137;28;20199;-75
2023/08/14 00:49:00;;;;;;;9.90;9.32;;;;;;;19.44;54.63;93263.91;5089751;28;20214;-75
2023/08/14 00:51:26;;;;;;;9.67;9.00;;;;;;;19.45;54.45;93257.53;5090256;28;20186;-75
2023/08/14 00:53:53;;;;;;;9.30;8.77;;;;;;;19.53;54.24;93271.84;5090257;28;20181;-75
2023/08/14 00:56:19;;;;;;;9.50;9.00;;;;;;;19.45;54.47;93265.47;5090658;28;20214;-75
2023/08/14 00:58:46;;;;;;;10.23;9.25;;;;;;;19.63;53.94;93261.66;5089131;28;20888;-75
2023/08/14 01:01:12;;;;;;;8.77;8.20;;;;;;;19.58;54.52;93269.03;5088858;28;20200;-75
2023/08/14 01:03:38;;;;;;;9.50;9.00;;;;;;;19.46;54.67;93268.88;5089362;28;20243;-75
2023/08/14 01:06:04;;;;;;;10.10;9.15;;;;;;;19.59;55.19;93270.56;5090078;28;20191;-75
2023/08/14 01:08:30;;;;;;;10.15;9.35;;;;;;;19.55;55.58;93270.44;5088910;28;20223;-75
2023/08/14 01:11:07;;;;;;;9.15;8.55;;;;;;;19.41;55.64;93269.09;5090344;28;20191;-75
2023/08/14 01:13:59;;;;;;;9.65;9.05;;;;;;;19.49;55.72;93266.41;5089353;28;20276;-75
2023/08/14 01:16:30;;;;;;;9.67;9.17;;;;;;;19.48;55.45;93259.56;5089314;28;20196;-75
2023/08/14 01:18:58;;;;;;;9.97;9.27;;;;;;;19.51;55.45;93269.50;5085770;28;20196;-75
2023/08/14 01:21:42;;;;;;;9.43;8.83;;;;;;;19.50;55.52;93267.19;5089360;28;20210;-74
2023/08/14 01:24:26;;;;;;;9.23;8.73;;;;;;;19.44;55.70;93258.63;5089922;28;20251;-75
2023/08/14 01:26:52;;;;;;;10.00;9.27;;;;;;;19.36;55.50;93256.78;5076673;28;20244;-75
2023/08/14 01:29:17;;;;;;;8.73;8.23;;;;;;;19.12;56.62;93227.38;5089644;28;20216;-75
2023/08/14 01:31:43;;;;;;;9.70;9.20;;;;;;;19.49;56.73;93261.09;5089687;28;20311;-75
2023/08/14 01:34:10;;;;;;;9.57;8.97;;;;;;;19.48;56.30;93262.19;5088832;28;20178;-75
2023/08/14 01:36:55;;;;;;;9.27;8.77;;;;;;;19.38;57.85;93265.19;5089257;28;20204;-75
2023/08/14 01:39:28;;;;;;;10.00;9.40;;;;;;;19.50;57.11;93267.97;5078347;28;20191;-75
2023/08/14 01:42:21;;;;;;;8.97;8.47;;;;;;;19.32;58.21;93255.06;5088973;28;20218;-75
2023/08/14 01:44:49;;;;;;;10.17;9.23;;;;;;;19.29;58.04;93258.34;5079485;28;20207;-75
2023/08/14 01:47:18;;;;;;;9.80;9.20;;;;;;;19.28;58.31;93259.44;5088479;28;20222;-76
2023/08/14 01:49:44;;;;;;;10.37;9.73;;;;;;;19.32;57.63;93252.41;5089883;28;20179;-75
2023/08/14 01:52:10;;;;;;;10.23;9.43;;;;;;;19.22;58.82;93253.53;5089036;28;20234;-75
2023/08/14 01:54:35;;;;;;;9.40;8.83;;;;;;;19.25;58.74;93255.53;5089826;28;20247;-75
2023/08/14 01:57:01;;;;;;;10.83;10.03;;;;;;;19.26;58.58;93257.09;5088849;28;20276;-75
2023/08/14 01:59:41;;;;;;;10.53;9.83;;;;;;;19.14;58.67;93219.91;5089594;28;20175;-75
2023/08/14 02:02:07;;;;;;;15.13;9.30;;;;;;;19.19;60.10;93256.81;5088072;28;20219;-75
2023/08/14 02:04:32;;;;;;;10.10;9.50;;;;;;;19.18;60.15;93249.94;5089656;28;20195;-75
2023/08/14 02:06:58;;;;;;;9.88;9.27;;;;;;;19.11;60.21;93244.38;5088561;28;20227;-75
2023/08/14 02:09:23;;;;;;;10.00;9.30;;;;;;;19.06;61.39;93250.59;5088801;28;20187;-75
2023/08/14 02:11:48;;;;;;;9.67;9.07;;;;;;;19.02;60.61;93251.53;5088945;28;20227;-75
2023/08/14 02:14:14;;;;;;;10.20;9.50;;;;;;;19.09;60.46;93257.13;5093385;28;20184;-74
2023/08/14 02:16:39;;;;;;;10.97;10.17;;;;;;;18.95;60.78;93235.34;5092431;28;22663;-75
2023/08/14 02:19:04;;;;;;;9.27;8.67;;;;;;;19.01;60.25;93249.97;5093996;28;20183;-75
2023/08/14 02:21:30;;;;;;;10.10;9.30;;;;;;;19.02;60.01;93243.59;5092045;28;20268;-75
2023/08/14 02:23:55;;;;;;;10.35;9.75;;;;;;;19.10;59.98;93258.69;5093720;28;20191;-75
2023/08/14 02:26:20;;;;;;;10.20;9.63;;;;;;;19.11;59.60;93249.66;5092851;28;20210;-74
2023/08/14 02:28:46;;;;;;;9.50;8.97;;;;;;;18.99;59.98;93236.28;5093559;28;20191;-74
2023/08/14 02:31:11;;;;;;;13.57;12.33;;;;;;;19.09;60.11;93249.19;5092813;28;20183;-76
2023/08/14 02:33:37;;;;;;;10.23;9.40;;;;;;;18.87;60.03;93223.69;5092734;28;20227;-75
2023/08/14 02:36:02;;;;;;;10.53;9.73;;;;;;;18.93;59.45;93211.84;5093199;28;20214;-75
2023/08/14 02:38:30;;;;;;;9.13;8.63;;;;;;;19.19;59.78;93251.50;5100250;28;20224;-75
2023/08/14 02:40:55;;;;;;;10.60;9.80;;;;;;;19.08;60.33;93251.06;5095260;28;20229;-75
2023/08/14 02:43:21;;;;;;;10.32;9.45;;;;;;;18.99;60.07;93250.28;5105190;28;20220;-75
2023/08/14 02:45:46;;;;;;;9.90;9.30;;;;;;;19.04;60.72;93259.94;5092962;28;20186;-75
2023/08/14 02:48:11;;;;;;;10.33;9.63;;;;;;;19.09;60.67;93265.84;5076713;28;20220;-75
2023/08/14 02:50:37;;;;;;;10.20;9.60;;;;;;;18.98;61.06;93246.09;5072680;28;20190;-75
2023/08/14 02:53:02;;;;;;;10.43;9.60;;;;;;;19.03;60.49;93256.53;5072514;28;20254;-75
2023/08/14 02:55:28;;;;;;;10.87;10.13;;;;;;;19.03;60.48;93263.69;5072682;28;20203;-75
2023/08/14 02:57:53;;;;;;;10.37;9.57;;;;;;;19.00;60.45;93251.06;5085229;28;20214;-75
2023/08/14 03:00:20;;;;;;;10.73;10.13;;;;;;;19.07;60.17;93254.81;5092689;28;20202;-75
2023/08/14 03:02:46;;;;;;;9.83;9.23;;;;;;;19.13;60.08;93252.75;5091698;28;20242;-75
2023/08/14 03:05:12;;;;;;;9.38;8.73;;;;;;;19.14;60.48;93254.31;5092594;28;20277;-75
2023/08/14 03:07:38;;;;;;;10.73;9.93;;;;;;;19.17;59.90;93256.34;5092368;28;20228;-75
2023/08/14 03:10:04;;;;;;;10.77;9.80;;;;;;;19.03;60.57;93245.16;5092110;28;20206;-76
2023/08/14 03:12:29;;;;;;;10.65;9.65;;;;;;;19.09;60.62;93257.13;5092164;28;20308;-75
2023/08/14 03:14:54;;;;;;;10.90;10.20;;;;;;;19.14;61.08;93255.09;5092310;28;20188;-75
2023/08/14 03:17:20;;;;;;;10.93;10.13;;;;;;;19.06;61.60;93257.75;5090514;28;20238;-75
2023/08/14 03:19:45;;;;;;;10.07;9.27;;;;;;;19.04;62.07;93258.06;5092725;28;20202;-75
2023/08/14 03:22:11;;;;;;;9.97;9.43;;;;;;;18.75;63.61;93254.53;5091977;28;20222;-75
2023/08/14 03:24:36;;;;;;;10.67;9.97;;;;;;;18.59;63.78;93254.22;5092175;28;20187;-75
2023/08/14 03:27:01;;;;;;;10.60;10.00;;;;;;;18.18;64.95;93250.44;5097866;28;20237;-75
2023/08/14 03:29:27;;;;;;;10.77;10.07;;;;;;;18.15;65.53;93251.81;5093482;28;20805;-76
2023/08/14 03:31:52;;;;;;;10.80;10.00;;;;;;;17.94;66.38;93261.44;5100042;28;20219;-75
2023/08/14 03:34:17;;;;;;;10.10;9.30;;;;;;;17.97;66.42;93257.38;5095482;28;20182;-75
2023/08/14 03:36:43;;;;;;;10.97;10.07;;;;;;;17.97;67.94;93262.66;5100099;28;20277;-75
2023/08/14 03:39:08;;;;;;;11.80;10.90;;;;;;;17.82;67.77;93249.88;5095470;28;20193;-75
2023/08/14 03:41:34;;;;;;;10.70;9.70;;;;;;;17.93;68.20;93267.00;5091013;28;20213;-75
2023/08/14 03:43:59;;;;;;;10.23;9.63;;;;;;;17.85;68.85;93267.75;5091676;28;20185;-75
2023/08/14 03:46:24;;;;;;;12.77;11.40;;;;;;;17.82;71.18;93271.03;5090956;28;20184;-76
2023/08/14 03:48:50;;;;;;;10.60;9.67;;;;;;;17.94;69.80;93265.94;5092136;28;20200;-75
2023/08/14 03:51:15;;;;;;;10.63;9.83;;;;;;;17.82;71.64;93268.38;5092032;28;20211;-75
2023/08/14 03:53:40;;;;;;;12.10;11.10;;;;;;;17.85;71.94;93260.63;5091313;28;20228;-75
2023/08/14 03:56:06;;;;;;;12.13;11.03;;;;;;;17.76;71.93;93265.09;5089775;28;20187;-75
2023/08/14 03:58:31;;;;;;;14.43;10.87;;;;;;;17.72;73.09;93271.28;5105572;28;20311;-75
2023/08/14 04:00:56;;;;;;;13.80;10.70;;;;;;;17.80;72.31;93268.69;5091417;28;20212;-75
2023/08/14 04:03:23;;;;;;;11.50;10.60;;;;;;;17.82;72.01;93261.22;5091014;28;20243;-75
2023/08/14 04:05:55;;;;;;;15.67;11.03;;;;;;;17.81;73.19;93254.38;5092163;28;20181;-75
2023/08/14 04:08:20;;;;;;;13.57;11.20;;;;;;;17.76;73.45;93243.19;5093541;28;20221;-75
2023/08/14 04:10:46;;;;;;;12.00;10.27;;;;;;;17.61;74.75;93249.66;5094543;28;20190;-74
2023/08/14 04:13:12;;;;;;;12.10;11.10;;;;;;;17.66;74.45;93260.09;5103984;28;20229;-75
2023/08/14 04:15:37;;;;;;;10.73;9.73;;;;;;;17.59;74.36;93255.25;5091510;28;20202;-74
2023/08/14 04:18:03;;;;;;;11.90;11.10;;;;;;;17.79;75.12;93261.06;5076639;28;20289;-75
2023/08/14 04:20:28;;;;;;;10.93;10.00;;;;;;;17.76;74.11;93272.25;5071231;28;20224;-75
2023/08/14 04:22:54;;;;;;;11.70;10.70;;;;;;;17.67;74.30;93250.28;5083623;28;20225;-75
2023/08/14 04:25:20;;;;;;;11.17;10.37;;;;;;;17.99;73.21;93274.50;5090855;28;20190;-75
2023/08/14 04:27:46;;;;;;;11.23;10.23;;;;;;;18.10;72.36;93283.66;5090883;28;20296;-75
2023/08/14 04:30:11;;;;;;;11.03;10.30;;;;;;;18.02;71.14;93271.25;5090744;28;20185;-74
2023/08/14 04:32:37;;;;;;;12.67;11.67;;;;;;;17.93;71.67;93294.19;5090292;28;20256;-75
2023/08/14 04:35:03;;;;;;;12.00;10.90;;;;;;;17.79;72.49;93298.81;5089406;28;20187;-75
2023/08/14 04:37:28;;;;;;;12.63;11.33;;;;;;;17.87;72.77;93289.38;5123131;28;20243;-75
2023/08/14 04:39:53;;;;;;;12.20;11.20;;;;;;;17.69;73.65;93283.25;5089246;28;20843;-75
2023/08/14 04:42:19;;;;;;;12.20;11.10;;;;;;;17.88;71.88;93293.56;5090308;28;20242;-75
2023/08/14 04:44:45;;;;;;;12.17;11.20;;;;;;;18.25;71.65;93295.69;5090598;28;20181;-75
2023/08/14 04:47:11;;;;;;;12.57;10.53;;;;;;;18.17;72.67;93283.22;5090337;28;20226;-75
2023/08/14 04:49:36;;;;;;;12.17;10.93;;;;;;;18.36;73.03;93295.09;5090222;28;20191;-75
2023/08/14 04:52:02;;;;;;;12.47;11.30;;;;;;;18.54;70.10;93286.09;5090202;28;20255;-75
2023/08/14 04:54:27;;;;;;;11.33;10.43;;;;;;;18.77;69.94;93307.91;5090021;28;20199;-74
2023/08/14 04:56:53;;;;;;;13.30;12.20;;;;;;;18.43;71.86;93294.63;5090097;28;20234;-75
2023/08/14 04:59:18;;;;;;;11.60;10.67;;;;;;;18.70;70.53;93303.09;5090406;28;20185;-75
2023/08/14 05:01:44;;;;;;;11.70;10.60;;;;;;;18.80;71.02;93299.34;5091223;28;20222;-75
2023/08/14 05:04:09;;;;;;;13.47;11.73;;;;;;;18.72;71.27;93294.84;5090488;28;20185;-75
2023/08/14 05:06:35;;;;;;;11.23;10.27;;;;;;;18.94;69.13;93307.91;5088231;28;20181;-74
2023/08/14 05:09:00;;;;;;;12.83;11.83;;;;;;;19.11;68.04;93313.94;5068434;28;20213;-75
2023/08/14 05:11:25;;;;;;;11.67;10.87;;;;;;;18.74;68.84;93308.53;5069930;28;20195;-75
2023/08/14 05:13:51;;;;;;;11.80;10.90;;;;;;;19.22;67.54;93311.78;5069911;28;20179;-75
2023/08/14 05:16:16;;;;;;;11.40;10.60;;;;;;;19.00;68.92;93306.66;5070066;28;20207;-74
2023/08/14 05:18:41;;;;;;;11.20;10.23;;;;;;;19.09;68.67;93308.22;5070115;28;20219;-75
2023/08/14 05:21:07;;;;;;;11.00;10.20;;;;;;;19.42;67.01;93311.16;5069882;28;20213;-75
2023/08/14 05:23:32;;;;;;;11.23;10.53;;;;;;;19.30;68.41;93304.94;5069629;28;20227;-75
2023/08/14 05:25:58;;;;;;;11.73;11.03;;;;;;;19.46;67.30;93309.41;5069643;28;20204;-75
2023/08/14 05:28:24;;;;;;;11.30;10.50;;;;;;;19.54;66.89;93321.84;5086864;28;20286;-75
2023/08/14 05:30:49;;;;;;;12.40;11.40;;;;;;;19.58;67.43;93317.47;5089241;28;20197;-75
2023/08/14 05:33:15;;;;;;;11.03;10.00;;;;;;;19.67;67.07;93318.25;5075776;28;20219;-75
2023/08/14 05:35:40;;;;;;;12.17;11.33;;;;;;;19.84;66.47;93310.25;5089875;28;20183;-75
2023/08/14 05:38:06;;;;;;;10.90;10.00;;;;;;;20.10;65.57;93313.53;5089545;28;20246;-75
2023/08/14 05:40:31;;;;;;;11.57;10.67;;;;;;;20.39;64.46;93326.81;5088460;28;20229;-75
2023/08/14 05:43:08;;;;;;;10.93;10.23;;;;;;;20.61;62.55;93329.19;5074927;28;20224;-75
2023/08/14 05:45:38;;;;;;;11.00;10.30;;;;;;;20.84;61.17;93320.94;5069858;28;20248;-75
2023/08/14 05:48:06;;;;;;;10.50;9.18;;;;;;;20.80;62.01;93314.69;5069701;28;20288;-75
2023/08/14 05:50:32;;;;;;;9.40;8.80;;;;;;;21.15;62.57;93338.03;5069638;28;20176;-75
2023/08/14 05:53:00;;;;;;;10.30;9.40;;;;;;;21.76;60.61;93339.06;5067731;28;20299;-75
2023/08/14 05:55:26;;;;;;;10.23;9.18;;;;;;;23.50;53.85;93337.56;5066541;28;20213;-75
2023/08/14 05:57:52;;;;;;;9.27;8.65;;;;;;;27.49;42.72;93351.31;5069152;28;20242;-75
2023/08/14 06:00:18;;;;;;;9.35;8.75;;;;;;;30.72;36.46;93369.56;5069592;28;20226;-75
2023/08/14 06:02:45;;;;;;;9.27;8.43;;;;;;;32.95;31.36;93372.97;5080704;28;20233;-75
2023/08/14 06:05:11;;;;;;;9.13;8.52;;;;;;;32.53;31.51;93371.34;5089457;28;20189;-75
2023/08/14 06:07:36;;;;;;;8.52;7.90;;;;;;;33.02;29.70;93365.56;5089700;28;20250;-74
2023/08/14 06:10:03;;;;;;;8.63;7.90;;;;;;;32.27;31.16;93364.53;5088884;28;20184;-75
2023/08/14 06:12:29;;;;;;;8.30;7.80;;;;;;;32.03;31.41;93359.28;5079983;28;20232;-75
2023/08/14 06:14:54;;;;;;;10.60;8.20;;;;;;;34.57;28.54;93366.50;5068984;28;20184;-75
2023/08/14 06:17:20;;;;;;;7.60;7.20;;;;;;;36.07;26.07;93376.69;5078877;28;20244;-75
2023/08/14 06:19:45;;;;;;;7.63;7.03;;;;;;;36.83;25.21;93372.69;5073105;28;20201;-76
2023/08/14 06:22:10;;;;;;;7.80;7.03;;;;;;;37.56;24.12;93381.00;5069021;28;20243;-76
2023/08/14 06:24:36;;;;;;;7.25;6.85;;;;;;;36.20;23.07;93376.81;5068579;28;20196;-76
2023/08/14 06:27:01;;;;;;;7.68;7.18;;;;;;;32.08;28.68;93359.63;5079435;28;20224;-75
2023/08/14 06:29:26;;;;;;;8.63;8.05;;;;;;;28.13;35.85;93355.47;5096028;28;21567;-75
2023/08/14 06:31:52;;;;;;;8.40;7.85;;;;;;;25.66;40.72;93344.16;5095583;28;20220;-75
2023/08/14 06:34:17;;;;;;;8.23;7.72;;;;;;;23.53;46.73;93323.53;5069276;28;20209;-75
2023/08/14 06:36:43;;;;;;;9.20;8.60;;;;;;;24.33;45.97;93334.00;5068818;28;20224;-75
2023/08/14 06:39:08;;;;;;;10.00;8.93;;;;;;;24.34;46.34;93340.88;5068245;28;20204;-76
2023/08/14 06:41:34;;;;;;;9.23;8.48;;;;;;;24.22;46.57;93336.38;5068633;28;20216;-75
2023/08/14 06:43:59;;;;;;;9.68;8.98;;;;;;;23.94;46.89;93332.22;5068937;28;20200;-75
2023/08/14 06:46:24;;;;;;;9.55;8.95;;;;;;;24.33;46.07;93345.44;5069028;28;20189;-75
2023/08/14 06:48:50;;;;;;;9.98;9.30;;;;;;;24.11;47.05;93338.03;5069364;28;20873;-75
2023/08/14 06:51:15;;;;;;;9.57;8.48;;;;;;;24.37;46.46;93345.53;5069159;28;20178;-75
2023/08/14 06:53:41;;;;;;;9.88;9.13;;;;;;;24.30;47.83;93334.66;5066349;28;20221;-75
2023/08/14 06:56:06;;;;;;;10.43;9.63;;;;;;;24.54;46.71;93350.50;5069191;28;20192;-75
2023/08/14 06:58:31;;;;;;;9.95;9.05;;;;;;;24.45;46.77;93352.59;5069315;28;20247;-75
2023/08/14 07:00:58;;;;;;;10.00;9.40;;;;;;;24.54;43.63;93351.28;5072497;28;20218;-75
2023/08/14 07:03:24;;;;;;;9.98;9.25;;;;;;;24.25;43.86;93351.72;5072391;28;20240;-75
2023/08/14 07:05:49;;;;;;;9.77;9.23;;;;;;;24.09;48.30;93352.84;5072884;28;20186;-75
2023/08/14 07:08:14;;;;;;;9.75;9.05;;;;;;;24.30;44.76;93358.69;5071367;28;20260;-75
2023/08/14 07:10:40;;;;;;;9.43;8.82;;;;;;;24.39;45.98;93354.72;5072750;28;20180;-75
2023/08/14 07:13:06;;;;;;;10.45;9.60;;;;;;;24.73;43.33;93353.25;5070282;28;20228;-75
2023/08/14 07:15:32;;;;;;;10.05;9.18;;;;;;;24.92;42.74;93356.75;5072437;28;20195;-75
2023/08/14 07:17:57;;;;;;;10.35;9.55;;;;;;;24.32;45.37;93354.56;5071763;28;20256;-76
2023/08/14 07:20:23;;;;;;;8.88;8.30;;;;;;;24.31;43.21;93353.00;5071444;28;20219;-75
2023/08/14 07:22:48;;;;;;;11.88;10.73;;;;;;;23.85;45.46;93340.38;5081513;28;20227;-75
2023/08/14 07:25:13;;;;;;;10.43;9.48;;;;;;;24.16;45.93;93353.78;5092290;28;20206;-75
2023/08/14 07:27:39;;;;;;;10.32;9.73;;;;;;;24.86;43.10;93344.00;5090588;28;20298;-75
2023/08/14 07:30:05;;;;;;;10.25;9.63;;;;;;;25.12;42.99;93366.34;5091930;28;20187;-75
2023/08/14 07:32:31;;;;;;;10.65;9.85;;;;;;;25.11;42.92;93359.47;5090793;28;20228;-74
2023/08/14 07:34:56;;;;;;;10.15;9.15;;;;;;;24.84;43.05;93360.38;5092072;28;20177;-75
2023/08/14 07:37:22;;;;;;;9.98;9.35;;;;;;;24.82;44.49;93357.31;5091006;28;20246;-75
2023/08/14 07:39:47;;;;;;;10.43;9.50;;;;;;;25.16;43.10;93363.75;5091923;28;20185;-75
2023/08/14 07:42:13;;;;;;;9.98;9.38;;;;;;;25.32;43.32;93363.69;5083714;28;20316;-75
2023/08/14 07:44:38;;;;;;;10.05;9.35;;;;;;;25.18;43.67;93356.91;5071761;28;20864;-75
2023/08/14 07:47:04;;;;;;;10.57;9.68;;;;;;;24.71;46.38;93350.16;5070983;28;20238;-75
2023/08/14 07:49:33;;;;;;;9.93;9.13;;;;;;;24.84;44.35;93352.38;5072071;28;20263;-75
2023/08/14 07:51:58;;;;;;;10.27;9.57;;;;;;;25.27;43.42;93359.41;5075335;28;20236;-75
2023/08/14 07:54:23;;;;;;;9.40;8.77;;;;;;;26.04;42.28;93368.22;5091983;28;20199;-75
2023/08/14 07:56:49;;;;;;;9.55;8.65;;;;;;;26.55;40.54;93372.91;5091222;28;20217;-75
2023/08/14 07:59:14;;;;;;;9.55;8.88;;;;;;;26.25;41.25;93372.03;5090538;28;20185;-75
2023/08/14 08:01:41;;;;;;;9.30;8.60;;;;;;;26.26;40.48;93376.25;5091064;28;20239;-75
2023/08/14 08:04:06;;;;;;;9.48;8.77;;;;;;;25.81;41.68;93360.09;5091766;28;20181;-75
2023/08/14 08:06:32;;;;;;;9.07;8.48;;;;;;;26.06;41.10;93371.28;5085077;28;20204;-75
2023/08/14 08:08:57;;;;;;;10.00;9.32;;;;;;;26.02;41.92;93379.28;5088872;28;20181;-75
2023/08/14 08:11:22;;;;;;;10.20;9.35;;;;;;;25.96;41.90;93377.97;5089885;28;20193;-74
2023/08/14 08:13:48;;;;;;;9.02;8.43;;;;;;;25.88;41.40;93370.97;5091132;28;20206;-75
2023/08/14 08:16:13;;;;;;;10.02;9.23;;;;;;;25.93;43.50;93369.91;5090843;28;20177;-77
2023/08/14 08:18:38;;;;;;;9.52;8.93;;;;;;;26.59;39.40;93375.63;5084919;28;20217;-75
2023/08/14 08:21:04;;;;;;;9.35;8.65;;;;;;;26.96;39.78;93381.97;5083843;28;20227;-75
2023/08/14 08:23:29;;;;;;;9.68;8.68;;;;;;;26.53;39.13;93358.31;5090652;28;20328;-75
2023/08/14 08:25:55;;;;;;;9.23;8.60;;;;;;;26.02;39.57;93368.56;5090815;28;20181;-75
2023/08/14 08:28:20;;;;;;;9.73;8.95;;;;;;;25.71;43.08;93358.03;5101171;28;20224;-75
2023/08/14 08:30:46;;;;;;;9.35;8.57;;;;;;;25.83;41.94;93357.88;5091119;28;20184;-75
2023/08/14 08:33:11;;;;;;;9.73;8.60;;;;;;;25.70;42.37;93359.13;5075125;28;20221;-75
2023/08/14 08:35:36;;;;;;;9.20;8.40;;;;;;;25.29;42.10;93354.47;5070142;28;20219;-75
2023/08/14 08:38:02;;;;;;;9.30;8.70;;;;;;;24.92;42.51;93350.63;5084018;28;20219;-75
2023/08/14 08:40:29;;;;;;;10.30;9.40;;;;;;;24.88;45.06;93345.22;5090847;28;20215;-75
2023/08/14 08:42:55;;;;;;;9.68;9.07;;;;;;;24.67;43.13;93350.06;5077094;28;20227;-77
2023/08/14 08:45:23;;;;;;;9.65;9.05;;;;;;;24.48;44.60;93351.88;5070814;28;20174;-75
2023/08/14 08:47:51;;;;;;;11.77;11.07;;;;;;;24.56;44.88;93353.59;5057323;28;20219;-75
2023/08/14 08:50:17;;;;;;;11.18;10.05;;;;;;;24.49;44.47;93348.09;5070213;28;20186;-75
2023/08/14 08:52:43;;;;;;;10.43;9.73;;;;;;;24.63;45.06;93335.06;5081268;28;20249;-74
2023/08/14 08:55:09;;;;;;;11.05;10.15;;;;;;;25.00;43.96;93349.66;5090212;28;20196;-75
2023/08/14 08:57:35;;;;;;;10.95;9.73;;;;;;;25.16;44.21;93337.03;5090035;28;20283;-75
2023/08/14 09:00:01;;;;;;;10.65;9.65;;;;;;;25.18;42.58;93348.16;5089886;28;20175;-75
2023/08/14 09:02:27;;;;;;;10.18;9.27;;;;;;;25.15;43.67;93346.16;5098749;28;20251;-75
2023/08/14 09:04:53;;;;;;;10.18;9.48;;;;;;;25.22;43.94;93348.97;5094827;28;20277;-75
2023/08/14 09:07:18;;;;;;;10.95;9.20;;;;;;;25.40;42.50;93344.81;5081717;28;20224;-75
2023/08/14 09:09:44;;;;;;;9.32;8.73;;;;;;;25.46;42.87;93334.59;5068887;28;20185;-75
2023/08/14 09:12:09;;;;;;;10.23;9.48;;;;;;;25.36;45.20;93333.25;5083251;28;20686;-75
2023/08/14 09:14:40;;;;;;;11.10;9.68;;;;;;;25.21;44.67;93320.72;5095294;28;20195;-75
2023/08/14 09:17:06;;;;;;;9.30;8.50;;;;;;;25.20;42.22;93333.28;5096689;28;20230;-76
2023/08/14 09:19:31;;;;;;;10.07;9.18;;;;;;;24.99;42.61;93335.53;5095255;28;20219;-75
2023/08/14 09:21:56;;;;;;;9.98;9.38;;;;;;;24.97;42.99;93326.31;5091391;28;20207;-75
2023/08/14 09:24:22;;;;;;;9.38;8.73;;;;;;;24.90;42.85;93331.50;5089535;28;20190;-75
2023/08/14 09:26:47;;;;;;;9.55;8.95;;;;;;;25.24;43.78;93326.13;5085503;28;20240;-75
2023/08/14 09:29:14;;;;;;;10.35;9.65;;;;;;;25.66;41.06;93336.13;5066357;28;20201;-75
2023/08/14 09:31:44;;;;;;;11.70;8.98;;;;;;;25.61;43.28;93326.50;5068992;28;20186;-75
2023/08/14 09:34:15;;;;;;;9.77;9.07;;;;;;;25.61;42.62;93323.81;5068812;28;20178;-75
2023/08/14 09:36:40;;;;;;;9.52;8.60;;;;;;;25.51;43.13;93302.97;5069195;28;20241;-76
2023/08/14 09:39:06;;;;;;;10.02;9.23;;;;;;;25.86;41.25;93311.66;5069702;28;20197;-75
2023/08/14 09:41:31;;;;;;;9.32;8.68;;;;;;;25.92;41.34;93317.47;5068966;28;20201;-75
2023/08/14 09:44:00;;;;;;;10.82;9.13;;;;;;;25.83;41.09;93314.28;5069375;28;20174;-75
2023/08/14 09:46:26;;;;;;;9.68;8.85;;;;;;;25.94;40.64;93307.19;5069210;28;20181;-75
2023/08/14 09:48:51;;;;;;;9.70;8.98;;;;;;;25.94;40.52;93309.88;5069704;28;20209;-76
2023/08/14 09:51:18;;;;;;;8.98;8.48;;;;;;;25.87;40.01;93309.78;5068702;28;20177;-75
2023/08/14 09:53:54;;;;;;;9.02;8.38;;;;;;;25.71;41.63;93317.91;5088741;28;20286;-75
2023/08/14 09:56:20;;;;;;;9.55;8.95;;;;;;;25.50;40.79;93300.66;5090106;28;20752;-75
2023/08/14 09:58:47;;;;;;;10.10;9.10;;;;;;;25.47;39.98;93307.50;5089098;28;20193;-76
2023/08/14 10:01:17;;;;;;;8.88;8.38;;;;;;;25.52;40.45;93304.53;5089317;28;20208;-74
2023/08/14 10:03:46;;;;;;;10.27;9.27;;;;;;;25.56;41.04;93310.72;5088137;28;20223;-75
2023/08/14 10:06:13;;;;;;;9.38;8.77;;;;;;;25.94;41.18;93304.53;5089320;28;20214;-76
2023/08/14 10:08:42;;;;;;;10.75;9.00;;;;;;;25.94;40.68;93305.31;5088918;28;20471;-75
2023/08/14 10:11:11;;;;;;;9.85;9.15;;;;;;;26.34;39.27;93310.19;5089367;28;20172;-76
2023/08/14 10:13:43;;;;;;;9.45;8.75;;;;;;;25.82;40.89;93297.44;5088625;28;20246;-76
2023/08/14 10:16:12;;;;;;;9.88;9.07;;;;;;;25.86;40.73;93298.28;5088166;28;20179;-74
2023/08/14 10:18:40;;;;;;;9.75;9.02;;;;;;;26.20;39.53;93301.94;5075065;28;20664;-75
2023/08/14 10:21:10;;;;;;;9.68;9.07;;;;;;;26.24;40.75;93300.09;5088988;28;20212;-75
2023/08/14 10:23:36;;;;;;;9.50;8.90;;;;;;;26.40;39.83;93301.50;5088826;28;21229;-75
2023/08/14 10:26:02;;;;;;;10.45;9.73;;;;;;;26.64;40.09;93295.78;5088852;28;20267;-74
2023/08/14 10:28:29;;;;;;;9.35;8.65;;;;;;;26.79;39.97;93285.25;5088873;28;20236;-75
2023/08/14 10:30:55;;;;;;;10.70;9.80;;;;;;;27.00;39.19;93296.25;5088933;28;20240;-75
2023/08/14 10:33:21;;;;;;;10.70;9.88;;;;;;;27.16;38.40;93297.59;5088024;28;20209;-74
2023/08/14 10:35:56;;;;;;;9.90;9.15;;;;;;;27.07;39.75;93291.00;5092268;28;20200;-74
2023/08/14 10:38:43;;;;;;;9.85;9.05;;;;;;;27.54;37.82;93288.50;5082280;28;20207;-74
2023/08/14 10:41:10;;;;;;;9.73;9.02;;;;;;;27.31;37.21;93285.19;5092504;28;20267;-75
2023/08/14 10:43:36;;;;;;;10.15;9.32;;;;;;;26.85;39.79;93278.44;5073913;28;20248;-74
2023/08/14 10:46:15;;;;;;;10.18;9.15;;;;;;;27.11;40.67;93268.44;5073379;28;20200;-74
2023/08/14 10:48:42;;;;;;;9.38;8.57;;;;;;;27.30;39.75;93280.97;5071137;28;20216;-75
2023/08/14 10:51:09;;;;;;;9.48;8.88;;;;;;;27.06;39.84;93284.06;5073093;28;20177;-74
2023/08/14 10:53:35;;;;;;;9.60;8.90;;;;;;;26.41;40.46;93278.94;5090580;28;20217;-75
2023/08/14 10:56:01;;;;;;;9.90;9.20;;;;;;;26.31;41.33;93276.88;5092847;28;20185;-76
2023/08/14 10:58:29;;;;;;;10.30;9.38;;;;;;;26.27;40.19;93277.97;5091190;28;20212;-74
2023/08/14 11:00:59;;;;;;;9.20;8.27;;;;;;;26.58;39.95;93270.38;5092530;28;20208;-74
2023/08/14 11:03:25;;;;;;;9.25;8.55;;;;;;;26.43;42.25;93247.22;5091681;28;20223;-75
2023/08/14 11:05:50;;;;;;;9.52;8.88;;;;;;;26.73;40.64;93277.53;5092203;28;20196;-75
2023/08/14 11:08:16;;;;;;;10.27;9.48;;;;;;;26.52;41.34;93268.38;5091991;28;20250;-75
2023/08/14 11:10:42;;;;;;;9.55;8.90;;;;;;;26.58;41.65;93273.06;5092389;28;20176;-74
2023/08/14 11:13:09;;;;;;;9.60;8.95;;;;;;;26.87;41.30;93268.13;5091453;28;20233;-75
2023/08/14 11:15:39;;;;;;;10.25;9.23;;;;;;;26.93;39.64;93264.75;5090988;28;20193;-75
2023/08/14 11:18:06;;;;;;;9.70;9.00;;;;;;;27.02;40.04;93257.22;5091368;28;20234;-75
2023/08/14 11:20:32;;;;;;;9.82;8.93;;;;;;;26.88;39.80;93251.66;5091748;28;20204;-75
2023/08/14 11:23:01;;;;;;;9.57;8.85;;;;;;;26.63;39.64;93270.09;5092534;28;20213;-75